»·PEaware :: SWA1943 KLAS-KLAX

SWA1943 :: KLAS-KLAX

FLIGHT INFORMATION

Flight Status: Arrived
Operator:
Southwest Airlines
More flights by this operator :: More flights under this callsign
Pilot: Chandler H. (20598)
Aircraft: BOEING 737-800
(B738)
More flights by this aircraft type
Origin: KLAS McCarran Intl
United States
Destination: KLAX Los Angeles Intl
United States
More flights between these airports :: More routes between these airports
Route: +BOACH8 RIKII SHTNR ANJLL4
File this flight plan on PilotEdge
Remarks:
Altitude:
(Current/Filed)
28,000ft
Speed:
(Current/Filed)
310kts
Departed: 14-Mar-19 07:11 PM
Arrived: 14-Mar-19 07:55 PM
Distance/Time
Traveled:
205nm/0:44
Distance/Time
To Go:
Arrived

Flight Plot

Page will automatically refresh every two minutes.

Flight plan parsing failed; only flown route is shown


Map Options




Map Legend


Flown Route
Filed Route
Departure Airport
Arrival Airport
Navaid (VOR, NDB)
Fix

Horizontal Profiles

Position Reports

Time Latitude Longitude Heading Altitude Ground
Speed
14-Mar-19 18:54 36.079929 -115.147114 57 2149ft 0kts
14-Mar-19 18:55 36.079929 -115.147114 57 2149ft 0kts
14-Mar-19 18:56 36.079929 -115.147114 57 2149ft 0kts
14-Mar-19 18:57 36.079929 -115.147114 57 2149ft 0kts
14-Mar-19 18:58 36.079929 -115.147114 57 2149ft 0kts
14-Mar-19 18:59 36.079929 -115.147114 57 2149ft 0kts
14-Mar-19 19:00 36.079929 -115.147114 57 2149ft 0kts
14-Mar-19 19:01 36.079929 -115.147114 57 2149ft 0kts
14-Mar-19 19:02 36.079839 -115.147286 56 2149ft 2kts
14-Mar-19 19:03 36.079455 -115.147592 353 2149ft 0kts
14-Mar-19 19:05 36.079381 -115.147576 350 2149ft 0kts
14-Mar-19 19:06 36.079381 -115.147576 350 2149ft 0kts
14-Mar-19 19:07 36.078887 -115.148117 194 2149ft 19kts
14-Mar-19 19:08 36.077998 -115.155710 271 2149ft 28kts
14-Mar-19 19:09 36.078006 -115.163884 270 2149ft 0kts
14-Mar-19 19:10 36.078008 -115.164280 271 2148ft 9kts
14-Mar-19 19:11 36.103161 -115.152347 8 2870ft 160kts
14-Mar-19 19:12 36.126882 -115.200893 261 4245ft 237kts
14-Mar-19 19:13 36.083978 -115.271434 232 6508ft 280kts
14-Mar-19 19:14 36.023410 -115.331031 198 9273ft 294kts
14-Mar-19 19:15 35.943000 -115.367507 195 10267ft 335kts
14-Mar-19 19:16 35.849124 -115.362076 160 12750ft 351kts
14-Mar-19 19:17 35.754015 -115.324083 161 15372ft 371kts
14-Mar-19 19:18 35.651114 -115.295148 181 17940ft 390kts
14-Mar-19 19:19 35.542958 -115.307964 196 20609ft 394kts
14-Mar-19 19:20 35.439538 -115.352497 210 23005ft 397kts
14-Mar-19 19:21 35.343683 -115.419373 214 23273ft 396kts
14-Mar-19 19:22 35.249041 -115.488011 214 23273ft 396kts
14-Mar-19 19:23 35.154976 -115.557044 218 23274ft 393kts
14-Mar-19 19:23 35.085953 -115.628316 228 23273ft 388kts
14-Mar-19 19:25 35.004748 -115.731195 229 23277ft 387kts
14-Mar-19 19:26 34.930282 -115.826038 229 23277ft 387kts
14-Mar-19 19:26 34.869058 -115.903837 229 23274ft 387kts
14-Mar-19 19:27 34.794558 -115.998249 229 23288ft 385kts
14-Mar-19 19:29 34.708792 -116.107378 229 23298ft 382kts
14-Mar-19 19:29 34.647707 -116.185054 229 23300ft 381kts
14-Mar-19 19:30 34.574381 -116.278085 229 23300ft 381kts
14-Mar-19 19:31 34.500970 -116.370937 229 23300ft 381kts
14-Mar-19 19:32 34.430026 -116.465482 236 23301ft 379kts
14-Mar-19 19:33 34.376533 -116.574781 246 23308ft 376kts
14-Mar-19 19:34 34.337297 -116.670234 245 23223ft 376kts
14-Mar-19 19:35 34.291407 -116.784240 246 22238ft 385kts
14-Mar-19 19:36 34.246373 -116.895827 246 20947ft 365kts
14-Mar-19 19:37 34.204752 -117.006676 253 19332ft 358kts
14-Mar-19 19:38 34.174234 -117.119481 255 17337ft 351kts
14-Mar-19 19:39 34.143754 -117.230843 254 16461ft 353kts
14-Mar-19 19:40 34.113999 -117.338726 254 14685ft 332kts
14-Mar-19 19:41 34.086664 -117.444609 256 12995ft 330kts
14-Mar-19 19:42 34.064190 -117.550840 261 12012ft 326kts
14-Mar-19 19:43 34.046553 -117.656324 260 12011ft 327kts
14-Mar-19 19:44 34.024939 -117.762712 244 12025ft 328kts
14-Mar-19 19:45 33.984564 -117.855942 264 10084ft 303kts
14-Mar-19 19:46 33.979972 -117.955781 265 7771ft 302kts
14-Mar-19 19:47 33.970802 -118.054250 264 5736ft 279kts
14-Mar-19 19:48 33.962815 -118.133665 264 4284ft 201kts
14-Mar-19 19:49 33.957059 -118.190697 264 3303ft 154kts
14-Mar-19 19:50 33.952168 -118.239078 264 2504ft 152kts
14-Mar-19 19:51 33.947059 -118.288980 264 1674ft 148kts
14-Mar-19 19:52 33.941864 -118.337824 264 864ft 143kts
14-Mar-19 19:53 33.937748 -118.378412 263 218ft 131kts
14-Mar-19 19:54 33.935071 -118.407128 309 130ft 11kts
14-Mar-19 19:55 33.936541 -118.408912 349 132ft 19kts
14-Mar-19 19:56 33.938869 -118.406654 80 130ft 18kts
14-Mar-19 19:57 33.939812 -118.404675 57 127ft 0kts

Navigation Log

Ident Type
Flight plan parsing failed, navigation log unavailable